sensor_id;sensor_type;location;lat;lon;timestamp;temperature;humidity
17148;DHT22;8689;47.364;8.796;2023-08-24T00:02:00;20.70;90.00
17148;DHT22;8689;47.364;8.796;2023-08-24T00:04:28;20.70;90.10
17148;DHT22;8689;47.364;8.796;2023-08-24T00:06:55;20.70;90.20
17148;DHT22;8689;47.364;8.796;2023-08-24T00:09:22;20.70;90.30
17148;DHT22;8689;47.364;8.796;2023-08-24T00:11:52;20.70;90.30
17148;DHT22;8689;47.364;8.796;2023-08-24T00:14:19;20.70;90.40
17148;DHT22;8689;47.364;8.796;2023-08-24T00:16:46;20.70;90.80
17148;DHT22;8689;47.364;8.796;2023-08-24T00:19:14;20.60;90.50
17148;DHT22;8689;47.364;8.796;2023-08-24T00:21:42;20.60;90.70
17148;DHT22;8689;47.364;8.796;2023-08-24T00:24:08;20.60;90.80
17148;DHT22;8689;47.364;8.796;2023-08-24T00:26:36;20.50;91.10
17148;DHT22;8689;47.364;8.796;2023-08-24T00:29:04;20.50;91.30
17148;DHT22;8689;47.364;8.796;2023-08-24T00:31:31;20.40;91.50
17148;DHT22;8689;47.364;8.796;2023-08-24T00:33:58;20.40;91.80
17148;DHT22;8689;47.364;8.796;2023-08-24T00:36:25;20.30;91.80
17148;DHT22;8689;47.364;8.796;2023-08-24T00:38:52;20.30;92.10
17148;DHT22;8689;47.364;8.796;2023-08-24T00:41:19;20.30;92.10
17148;DHT22;8689;47.364;8.796;2023-08-24T00:43:47;20.30;92.40
17148;DHT22;8689;47.364;8.796;2023-08-24T00:46:17;20.10;92.30
17148;DHT22;8689;47.364;8.796;2023-08-24T00:48:45;20.10;92.40
17148;DHT22;8689;47.364;8.796;2023-08-24T00:51:12;20.10;92.70
17148;DHT22;8689;47.364;8.796;2023-08-24T00:53:39;20.10;92.70
17148;DHT22;8689;47.364;8.796;2023-08-24T00:56:07;20.10;93.10
17148;DHT22;8689;47.364;8.796;2023-08-24T00:58:34;20.10;93.30
17148;DHT22;8689;47.364;8.796;2023-08-24T01:01:03;20.00;93.60
17148;DHT22;8689;47.364;8.796;2023-08-24T01:03:32;20.00;93.80
17148;DHT22;8689;47.364;8.796;2023-08-24T01:05:59;19.90;94.00
17148;DHT22;8689;47.364;8.796;2023-08-24T01:08:26;19.90;94.40
17148;DHT22;8689;47.364;8.796;2023-08-24T01:10:59;19.80;94.70
17148;DHT22;8689;47.364;8.796;2023-08-24T01:13:32;19.70;95.40
17148;DHT22;8689;47.364;8.796;2023-08-24T01:16:08;19.70;95.30
17148;DHT22;8689;47.364;8.796;2023-08-24T01:18:39;19.70;95.50
17148;DHT22;8689;47.364;8.796;2023-08-24T01:21:08;19.80;95.70
17148;DHT22;8689;47.364;8.796;2023-08-24T01:23:43;19.70;95.80
17148;DHT22;8689;47.364;8.796;2023-08-24T01:26:14;19.70;96.00
17148;DHT22;8689;47.364;8.796;2023-08-24T01:28:44;19.80;96.40
17148;DHT22;8689;47.364;8.796;2023-08-24T01:31:13;19.70;96.80
17148;DHT22;8689;47.364;8.796;2023-08-24T01:33:40;19.70;97.00
17148;DHT22;8689;47.364;8.796;2023-08-24T01:36:08;19.70;97.30
17148;DHT22;8689;47.364;8.796;2023-08-24T01:38:36;19.70;97.60
17148;DHT22;8689;47.364;8.796;2023-08-24T01:41:09;19.70;98.00
17148;DHT22;8689;47.364;8.796;2023-08-24T01:43:40;19.60;98.50
17148;DHT22;8689;47.364;8.796;2023-08-24T01:46:09;19.70;98.90
17148;DHT22;8689;47.364;8.796;2023-08-24T01:48:39;19.60;99.10
17148;DHT22;8689;47.364;8.796;2023-08-24T01:51:07;19.60;99.90
17148;DHT22;8689;47.364;8.796;2023-08-24T01:53:36;19.60;99.90
17148;DHT22;8689;47.364;8.796;2023-08-24T01:56:08;19.60;99.90
17148;DHT22;8689;47.364;8.796;2023-08-24T01:58:35;19.70;99.90
17148;DHT22;8689;47.364;8.796;2023-08-24T02:01:04;19.70;99.90
17148;DHT22;8689;47.364;8.796;2023-08-24T02:03:33;19.70;99.90
17148;DHT22;8689;47.364;8.796;2023-08-24T02:06:00;19.70;99.90
17148;DHT22;8689;47.364;8.796;2023-08-24T02:08:27;19.70;99.90
17148;DHT22;8689;47.364;8.796;2023-08-24T02:10:54;19.70;99.90
17148;DHT22;8689;47.364;8.796;2023-08-24T02:13:21;19.60;99.90
17148;DHT22;8689;47.364;8.796;2023-08-24T02:15:48;19.60;99.90
17148;DHT22;8689;47.364;8.796;2023-08-24T02:18:16;19.60;99.90
17148;DHT22;8689;47.364;8.796;2023-08-24T02:20:43;19.50;99.90
17148;DHT22;8689;47.364;8.796;2023-08-24T02:23:10;19.50;99.90
17148;DHT22;8689;47.364;8.796;2023-08-24T02:25:42;19.50;99.90
17148;DHT22;8689;47.364;8.796;2023-08-24T02:28:09;19.50;99.90
17148;DHT22;8689;47.364;8.796;2023-08-24T02:30:37;19.40;99.90
17148;DHT22;8689;47.364;8.796;2023-08-24T02:33:04;19.30;99.90
17148;DHT22;8689;47.364;8.796;2023-08-24T02:35:33;19.20;99.90
17148;DHT22;8689;47.364;8.796;2023-08-24T02:38:00;19.20;99.90
17148;DHT22;8689;47.364;8.796;2023-08-24T02:40:28;19.30;99.90
17148;DHT22;8689;47.364;8.796;2023-08-24T02:42:55;19.30;99.90
17148;DHT22;8689;47.364;8.796;2023-08-24T02:45:22;19.40;99.90
17148;DHT22;8689;47.364;8.796;2023-08-24T02:47:49;19.40;99.90
17148;DHT22;8689;47.364;8.796;2023-08-24T02:50:16;19.40;99.90
17148;DHT22;8689;47.364;8.796;2023-08-24T02:52:44;19.40;99.90
17148;DHT22;8689;47.364;8.796;2023-08-24T02:55:12;19.30;99.90
17148;DHT22;8689;47.364;8.796;2023-08-24T02:57:39;19.30;99.90
17148;DHT22;8689;47.364;8.796;2023-08-24T03:00:07;19.30;99.90
17148;DHT22;8689;47.364;8.796;2023-08-24T03:02:35;19.30;99.90
17148;DHT22;8689;47.364;8.796;2023-08-24T03:05:02;19.30;99.90
17148;DHT22;8689;47.364;8.796;2023-08-24T03:07:30;19.30;99.90
17148;DHT22;8689;47.364;8.796;2023-08-24T03:09:58;19.30;99.90
17148;DHT22;8689;47.364;8.796;2023-08-24T03:12:25;19.30;99.90
17148;DHT22;8689;47.364;8.796;2023-08-24T03:14:52;19.30;99.90
17148;DHT22;8689;47.364;8.796;2023-08-24T03:17:20;19.30;99.90
17148;DHT22;8689;47.364;8.796;2023-08-24T03:19:48;19.30;99.90
17148;DHT22;8689;47.364;8.796;2023-08-24T03:22:14;19.30;99.90
17148;DHT22;8689;47.364;8.796;2023-08-24T03:24:42;19.20;99.90
17148;DHT22;8689;47.364;8.796;2023-08-24T03:27:10;19.20;99.90
17148;DHT22;8689;47.364;8.796;2023-08-24T03:29:37;19.10;99.90
17148;DHT22;8689;47.364;8.796;2023-08-24T03:32:04;19.10;99.90
17148;DHT22;8689;47.364;8.796;2023-08-24T03:34:31;19.10;99.90
17148;DHT22;8689;47.364;8.796;2023-08-24T03:36:58;19.00;99.90
17148;DHT22;8689;47.364;8.796;2023-08-24T03:39:25;19.00;99.90
17148;DHT22;8689;47.364;8.796;2023-08-24T03:41:52;19.00;99.90
17148;DHT22;8689;47.364;8.796;2023-08-24T03:44:21;19.00;99.90
17148;DHT22;8689;47.364;8.796;2023-08-24T03:46:48;19.00;99.90
17148;DHT22;8689;47.364;8.796;2023-08-24T03:49:15;19.00;99.90
17148;DHT22;8689;47.364;8.796;2023-08-24T03:51:43;19.00;99.90
17148;DHT22;8689;47.364;8.796;2023-08-24T03:54:10;19.00;99.90
17148;DHT22;8689;47.364;8.796;2023-08-24T03:56:37;19.00;99.90
17148;DHT22;8689;47.364;8.796;2023-08-24T03:59:04;19.00;99.90
17148;DHT22;8689;47.364;8.796;2023-08-24T04:01:32;19.00;99.90
17148;DHT22;8689;47.364;8.796;2023-08-24T04:03:59;18.90;99.90
17148;DHT22;8689;47.364;8.796;2023-08-24T04:06:27;18.80;99.90
17148;DHT22;8689;47.364;8.796;2023-08-24T04:08:53;18.70;99.90
17148;DHT22;8689;47.364;8.796;2023-08-24T04:11:20;18.80;99.90
17148;DHT22;8689;47.364;8.796;2023-08-24T04:13:47;18.80;99.90
17148;DHT22;8689;47.364;8.796;2023-08-24T04:16:15;18.90;99.90
17148;DHT22;8689;47.364;8.796;2023-08-24T04:18:44;18.90;99.90
17148;DHT22;8689;47.364;8.796;2023-08-24T04:21:11;19.00;99.90
17148;DHT22;8689;47.364;8.796;2023-08-24T04:23:38;19.00;99.90
17148;DHT22;8689;47.364;8.796;2023-08-24T04:26:10;18.90;99.90
17148;DHT22;8689;47.364;8.796;2023-08-24T04:28:37;18.90;99.90
17148;DHT22;8689;47.364;8.796;2023-08-24T04:31:04;18.80;99.90
17148;DHT22;8689;47.364;8.796;2023-08-24T04:33:31;18.80;99.90
17148;DHT22;8689;47.364;8.796;2023-08-24T04:36:01;18.80;99.90
17148;DHT22;8689;47.364;8.796;2023-08-24T04:38:28;18.80;99.90
17148;DHT22;8689;47.364;8.796;2023-08-24T04:40:56;18.80;99.90
17148;DHT22;8689;47.364;8.796;2023-08-24T04:43:24;18.80;99.90
17148;DHT22;8689;47.364;8.796;2023-08-24T04:45:56;18.70;99.90
17148;DHT22;8689;47.364;8.796;2023-08-24T04:48:25;18.80;99.90
17148;DHT22;8689;47.364;8.796;2023-08-24T04:50:53;18.70;99.90
17148;DHT22;8689;47.364;8.796;2023-08-24T04:53:23;18.80;99.90
17148;DHT22;8689;47.364;8.796;2023-08-24T04:55:50;18.80;99.90
17148;DHT22;8689;47.364;8.796;2023-08-24T04:58:17;18.80;99.90
17148;DHT22;8689;47.364;8.796;2023-08-24T05:00:45;18.90;99.90
17148;DHT22;8689;47.364;8.796;2023-08-24T05:03:14;18.90;99.90
17148;DHT22;8689;47.364;8.796;2023-08-24T05:05:41;18.90;99.90
17148;DHT22;8689;47.364;8.796;2023-08-24T05:08:08;19.00;99.90
17148;DHT22;8689;47.364;8.796;2023-08-24T05:10:38;19.10;99.90
17148;DHT22;8689;47.364;8.796;2023-08-24T05:13:05;19.10;99.90
17148;DHT22;8689;47.364;8.796;2023-08-24T05:15:32;19.20;99.90
17148;DHT22;8689;47.364;8.796;2023-08-24T05:18:01;19.40;99.90
17148;DHT22;8689;47.364;8.796;2023-08-24T05:20:29;19.50;99.90
17148;DHT22;8689;47.364;8.796;2023-08-24T05:22:56;19.70;99.90
17148;DHT22;8689;47.364;8.796;2023-08-24T05:25:23;19.90;99.90
17148;DHT22;8689;47.364;8.796;2023-08-24T05:27:52;20.00;99.90
17148;DHT22;8689;47.364;8.796;2023-08-24T05:30:19;20.10;99.90
17148;DHT22;8689;47.364;8.796;2023-08-24T05:32:46;20.20;99.90
17148;DHT22;8689;47.364;8.796;2023-08-24T05:35:14;20.30;99.90
17148;DHT22;8689;47.364;8.796;2023-08-24T05:37:41;20.30;99.90
17148;DHT22;8689;47.364;8.796;2023-08-24T05:40:08;20.40;99.90
17148;DHT22;8689;47.364;8.796;2023-08-24T05:42:36;20.50;99.90
17148;DHT22;8689;47.364;8.796;2023-08-24T05:45:05;20.60;99.90
17148;DHT22;8689;47.364;8.796;2023-08-24T05:47:33;20.70;99.90
17148;DHT22;8689;47.364;8.796;2023-08-24T05:50:00;20.80;99.90
17148;DHT22;8689;47.364;8.796;2023-08-24T05:52:27;20.90;99.90
17148;DHT22;8689;47.364;8.796;2023-08-24T05:54:54;21.00;99.90
17148;DHT22;8689;47.364;8.796;2023-08-24T05:57:22;21.10;99.90
17148;DHT22;8689;47.364;8.796;2023-08-24T05:59:49;21.20;99.90
17148;DHT22;8689;47.364;8.796;2023-08-24T06:02:18;21.30;99.90
17148;DHT22;8689;47.364;8.796;2023-08-24T06:04:44;21.40;99.90
17148;DHT22;8689;47.364;8.796;2023-08-24T06:07:12;21.50;99.90
17148;DHT22;8689;47.364;8.796;2023-08-24T06:09:39;21.50;99.90
17148;DHT22;8689;47.364;8.796;2023-08-24T06:12:07;21.60;99.90
17148;DHT22;8689;47.364;8.796;2023-08-24T06:14:34;21.60;99.90
17148;DHT22;8689;47.364;8.796;2023-08-24T06:17:01;21.60;99.90
17148;DHT22;8689;47.364;8.796;2023-08-24T06:19:30;21.60;99.90
17148;DHT22;8689;47.364;8.796;2023-08-24T06:21:58;21.60;99.90
17148;DHT22;8689;47.364;8.796;2023-08-24T06:24:25;21.60;99.90
17148;DHT22;8689;47.364;8.796;2023-08-24T06:26:52;21.60;99.90
17148;DHT22;8689;47.364;8.796;2023-08-24T06:29:19;21.60;99.90
17148;DHT22;8689;47.364;8.796;2023-08-24T06:31:46;21.70;99.90
17148;DHT22;8689;47.364;8.796;2023-08-24T06:34:13;21.80;99.90
17148;DHT22;8689;47.364;8.796;2023-08-24T06:36:42;21.90;99.90
17148;DHT22;8689;47.364;8.796;2023-08-24T06:39:09;21.90;99.90
17148;DHT22;8689;47.364;8.796;2023-08-24T06:41:37;21.90;99.90
17148;DHT22;8689;47.364;8.796;2023-08-24T06:44:04;21.90;99.90
17148;DHT22;8689;47.364;8.796;2023-08-24T06:46:31;21.90;99.90
17148;DHT22;8689;47.364;8.796;2023-08-24T06:48:58;22.00;99.90
17148;DHT22;8689;47.364;8.796;2023-08-24T06:51:26;22.20;99.90
17148;DHT22;8689;47.364;8.796;2023-08-24T06:53:55;22.60;99.90
17148;DHT22;8689;47.364;8.796;2023-08-24T06:56:22;23.10;99.90
17148;DHT22;8689;47.364;8.796;2023-08-24T06:58:49;23.60;99.90
17148;DHT22;8689;47.364;8.796;2023-08-24T07:01:16;24.10;99.90
17148;DHT22;8689;47.364;8.796;2023-08-24T07:03:43;24.40;99.90
17148;DHT22;8689;47.364;8.796;2023-08-24T07:06:11;24.80;99.90
17148;DHT22;8689;47.364;8.796;2023-08-24T07:08:38;24.90;99.90
17148;DHT22;8689;47.364;8.796;2023-08-24T07:11:07;24.90;99.90
17148;DHT22;8689;47.364;8.796;2023-08-24T07:13:34;25.00;99.90
17148;DHT22;8689;47.364;8.796;2023-08-24T07:16:02;25.10;99.90
17148;DHT22;8689;47.364;8.796;2023-08-24T07:18:30;25.20;99.90
17148;DHT22;8689;47.364;8.796;2023-08-24T07:20:57;25.40;99.30
17148;DHT22;8689;47.364;8.796;2023-08-24T07:23:24;25.60;97.00
17148;DHT22;8689;47.364;8.796;2023-08-24T07:25:52;25.80;95.80
17148;DHT22;8689;47.364;8.796;2023-08-24T07:28:21;26.20;95.00
17148;DHT22;8689;47.364;8.796;2023-08-24T07:30:48;26.40;94.10
17148;DHT22;8689;47.364;8.796;2023-08-24T07:33:15;26.70;93.20
17148;DHT22;8689;47.364;8.796;2023-08-24T07:35:42;27.00;92.10
17148;DHT22;8689;47.364;8.796;2023-08-24T07:38:09;27.30;87.50
17148;DHT22;8689;47.364;8.796;2023-08-24T07:40:36;27.50;87.00
17148;DHT22;8689;47.364;8.796;2023-08-24T07:43:04;27.70;87.10
17148;DHT22;8689;47.364;8.796;2023-08-24T07:45:32;27.90;83.10
17148;DHT22;8689;47.364;8.796;2023-08-24T07:48:00;28.20;83.50
17148;DHT22;8689;47.364;8.796;2023-08-24T07:50:27;28.30;81.60
17148;DHT22;8689;47.364;8.796;2023-08-24T07:52:54;28.60;82.10
17148;DHT22;8689;47.364;8.796;2023-08-24T07:55:21;28.70;80.30
17148;DHT22;8689;47.364;8.796;2023-08-24T07:57:48;28.90;77.10
17148;DHT22;8689;47.364;8.796;2023-08-24T08:00:16;28.90;75.30
17148;DHT22;8689;47.364;8.796;2023-08-24T08:02:45;29.10;74.90
17148;DHT22;8689;47.364;8.796;2023-08-24T08:05:12;29.20;75.70
17148;DHT22;8689;47.364;8.796;2023-08-24T08:07:39;29.30;76.70
17148;DHT22;8689;47.364;8.796;2023-08-24T08:10:07;29.50;76.10
17148;DHT22;8689;47.364;8.796;2023-08-24T08:12:34;29.50;73.80
17148;DHT22;8689;47.364;8.796;2023-08-24T08:15:02;29.30;74.60
17148;DHT22;8689;47.364;8.796;2023-08-24T08:17:31;29.40;74.40
17148;DHT22;8689;47.364;8.796;2023-08-24T08:20:00;29.60;73.30
17148;DHT22;8689;47.364;8.796;2023-08-24T08:22:28;29.80;72.40
17148;DHT22;8689;47.364;8.796;2023-08-24T08:24:55;30.10;72.00
17148;DHT22;8689;47.364;8.796;2023-08-24T08:27:23;30.20;72.80
17148;DHT22;8689;47.364;8.796;2023-08-24T08:29:51;30.60;69.30
17148;DHT22;8689;47.364;8.796;2023-08-24T08:32:18;30.70;69.60
17148;DHT22;8689;47.364;8.796;2023-08-24T08:34:46;30.80;69.00
17148;DHT22;8689;47.364;8.796;2023-08-24T08:37:14;30.90;68.40
17148;DHT22;8689;47.364;8.796;2023-08-24T08:39:41;31.00;67.20
17148;DHT22;8689;47.364;8.796;2023-08-24T08:42:14;31.20;67.60
17148;DHT22;8689;47.364;8.796;2023-08-24T08:44:42;31.30;65.10
17148;DHT22;8689;47.364;8.796;2023-08-24T08:47:11;31.20;65.30
17148;DHT22;8689;47.364;8.796;2023-08-24T08:49:39;31.30;64.00
17148;DHT22;8689;47.364;8.796;2023-08-24T08:52:07;31.40;64.20
17148;DHT22;8689;47.364;8.796;2023-08-24T08:54:35;31.50;60.90
17148;DHT22;8689;47.364;8.796;2023-08-24T08:57:02;31.40;62.10
17148;DHT22;8689;47.364;8.796;2023-08-24T08:59:30;31.60;60.00
17148;DHT22;8689;47.364;8.796;2023-08-24T09:01:58;31.60;60.20
17148;DHT22;8689;47.364;8.796;2023-08-24T09:04:28;31.60;60.90
17148;DHT22;8689;47.364;8.796;2023-08-24T09:06:56;31.70;59.80
17148;DHT22;8689;47.364;8.796;2023-08-24T09:09:24;31.70;59.40
17148;DHT22;8689;47.364;8.796;2023-08-24T09:11:53;31.70;59.80
17148;DHT22;8689;47.364;8.796;2023-08-24T09:14:20;31.70;60.00
17148;DHT22;8689;47.364;8.796;2023-08-24T09:16:50;31.80;60.10
17148;DHT22;8689;47.364;8.796;2023-08-24T09:19:17;31.80;60.10
17148;DHT22;8689;47.364;8.796;2023-08-24T09:21:45;31.90;59.50
17148;DHT22;8689;47.364;8.796;2023-08-24T09:24:12;32.10;60.40
17148;DHT22;8689;47.364;8.796;2023-08-24T09:26:39;32.30;60.50
17148;DHT22;8689;47.364;8.796;2023-08-24T09:29:14;32.40;60.00
17148;DHT22;8689;47.364;8.796;2023-08-24T09:31:43;32.30;59.00
17148;DHT22;8689;47.364;8.796;2023-08-24T09:34:13;32.40;60.30
17148;DHT22;8689;47.364;8.796;2023-08-24T09:36:46;32.40;59.50
17148;DHT22;8689;47.364;8.796;2023-08-24T09:39:16;32.60;59.50
17148;DHT22;8689;47.364;8.796;2023-08-24T09:41:46;32.80;58.90
17148;DHT22;8689;47.364;8.796;2023-08-24T09:44:17;32.90;58.50
17148;DHT22;8689;47.364;8.796;2023-08-24T09:46:44;33.00;58.40
17148;DHT22;8689;47.364;8.796;2023-08-24T09:49:11;33.00;56.80
17148;DHT22;8689;47.364;8.796;2023-08-24T09:51:39;33.20;58.60
17148;DHT22;8689;47.364;8.796;2023-08-24T09:54:08;33.20;57.40
17148;DHT22;8689;47.364;8.796;2023-08-24T09:56:38;33.20;57.90
17148;DHT22;8689;47.364;8.796;2023-08-24T09:59:11;33.30;57.20
17148;DHT22;8689;47.364;8.796;2023-08-24T10:01:43;33.40;57.60
17148;DHT22;8689;47.364;8.796;2023-08-24T10:04:12;33.30;58.30
17148;DHT22;8689;47.364;8.796;2023-08-24T10:06:41;33.40;58.20
17148;DHT22;8689;47.364;8.796;2023-08-24T10:09:19;33.60;56.60
17148;DHT22;8689;47.364;8.796;2023-08-24T10:11:52;33.60;56.70
17148;DHT22;8689;47.364;8.796;2023-08-24T10:14:25;33.50;56.50
17148;DHT22;8689;47.364;8.796;2023-08-24T10:16:56;33.40;56.60
17148;DHT22;8689;47.364;8.796;2023-08-24T10:19:24;33.50;57.40
17148;DHT22;8689;47.364;8.796;2023-08-24T10:21:53;33.60;57.60
17148;DHT22;8689;47.364;8.796;2023-08-24T10:24:23;33.70;56.50
17148;DHT22;8689;47.364;8.796;2023-08-24T10:26:51;33.80;55.90
17148;DHT22;8689;47.364;8.796;2023-08-24T10:29:20;33.90;54.80
17148;DHT22;8689;47.364;8.796;2023-08-24T10:31:48;34.00;55.80
17148;DHT22;8689;47.364;8.796;2023-08-24T10:34:19;34.10;56.60
17148;DHT22;8689;47.364;8.796;2023-08-24T10:36:54;34.20;54.80
17148;DHT22;8689;47.364;8.796;2023-08-24T10:39:27;34.20;55.20
17148;DHT22;8689;47.364;8.796;2023-08-24T10:41:55;34.30;55.00
17148;DHT22;8689;47.364;8.796;2023-08-24T10:44:33;34.50;53.50
17148;DHT22;8689;47.364;8.796;2023-08-24T10:47:12;34.60;53.70
17148;DHT22;8689;47.364;8.796;2023-08-24T10:49:42;34.50;52.60
17148;DHT22;8689;47.364;8.796;2023-08-24T10:52:19;34.40;54.90
17148;DHT22;8689;47.364;8.796;2023-08-24T10:54:48;34.40;53.90
17148;DHT22;8689;47.364;8.796;2023-08-24T10:57:20;34.50;52.80
17148;DHT22;8689;47.364;8.796;2023-08-24T11:00:03;34.60;52.90
17148;DHT22;8689;47.364;8.796;2023-08-24T11:02:42;34.80;53.00
17148;DHT22;8689;47.364;8.796;2023-08-24T11:05:19;34.80;51.20
17148;DHT22;8689;47.364;8.796;2023-08-24T11:07:54;35.00;53.20
17148;DHT22;8689;47.364;8.796;2023-08-24T11:10:26;35.10;52.00
17148;DHT22;8689;47.364;8.796;2023-08-24T11:13:19;35.10;50.60
17148;DHT22;8689;47.364;8.796;2023-08-24T11:15:49;34.80;51.70
17148;DHT22;8689;47.364;8.796;2023-08-24T11:18:24;34.80;52.00
17148;DHT22;8689;47.364;8.796;2023-08-24T11:20:55;35.10;51.50
17148;DHT22;8689;47.364;8.796;2023-08-24T11:23:24;35.20;51.50
17148;DHT22;8689;47.364;8.796;2023-08-24T11:25:53;35.40;50.90
17148;DHT22;8689;47.364;8.796;2023-08-24T11:28:23;35.50;49.30
17148;DHT22;8689;47.364;8.796;2023-08-24T11:30:51;35.70;50.80
17148;DHT22;8689;47.364;8.796;2023-08-24T11:33:27;35.90;50.20
17148;DHT22;8689;47.364;8.796;2023-08-24T11:35:57;36.10;49.30
17148;DHT22;8689;47.364;8.796;2023-08-24T11:38:24;36.20;48.00
17148;DHT22;8689;47.364;8.796;2023-08-24T11:40:52;36.40;47.80
17148;DHT22;8689;47.364;8.796;2023-08-24T11:43:25;36.40;48.70
17148;DHT22;8689;47.364;8.796;2023-08-24T11:45:54;36.50;47.90
17148;DHT22;8689;47.364;8.796;2023-08-24T11:48:24;36.50;47.90
17148;DHT22;8689;47.364;8.796;2023-08-24T11:50:57;36.70;48.00
17148;DHT22;8689;47.364;8.796;2023-08-24T11:53:24;36.80;47.00
17148;DHT22;8689;47.364;8.796;2023-08-24T11:55:54;36.70;46.90
17148;DHT22;8689;47.364;8.796;2023-08-24T11:58:21;36.70;48.00
17148;DHT22;8689;47.364;8.796;2023-08-24T12:00:49;36.70;48.00
17148;DHT22;8689;47.364;8.796;2023-08-24T12:03:17;36.60;47.60
17148;DHT22;8689;47.364;8.796;2023-08-24T12:05:44;36.50;47.20
17148;DHT22;8689;47.364;8.796;2023-08-24T12:08:13;36.50;47.60
17148;DHT22;8689;47.364;8.796;2023-08-24T12:10:44;36.50;47.40
17148;DHT22;8689;47.364;8.796;2023-08-24T12:13:12;36.30;47.30
17148;DHT22;8689;47.364;8.796;2023-08-24T12:15:40;36.20;47.40
17148;DHT22;8689;47.364;8.796;2023-08-24T12:18:08;36.20;46.80
17148;DHT22;8689;47.364;8.796;2023-08-24T12:20:36;36.30;48.10
17148;DHT22;8689;47.364;8.796;2023-08-24T12:23:04;36.40;47.40
17148;DHT22;8689;47.364;8.796;2023-08-24T12:25:36;36.50;46.90
17148;DHT22;8689;47.364;8.796;2023-08-24T12:28:11;36.50;46.80
17148;DHT22;8689;47.364;8.796;2023-08-24T12:30:46;36.50;47.60
17148;DHT22;8689;47.364;8.796;2023-08-24T12:33:24;36.50;48.30
17148;DHT22;8689;47.364;8.796;2023-08-24T12:35:52;36.20;47.20
17148;DHT22;8689;47.364;8.796;2023-08-24T12:38:19;36.20;47.40
17148;DHT22;8689;47.364;8.796;2023-08-24T12:40:48;36.30;46.80
17148;DHT22;8689;47.364;8.796;2023-08-24T12:43:16;36.30;46.60
17148;DHT22;8689;47.364;8.796;2023-08-24T12:45:43;36.20;47.70
17148;DHT22;8689;47.364;8.796;2023-08-24T12:48:11;36.20;48.00
17148;DHT22;8689;47.364;8.796;2023-08-24T12:50:38;36.20;47.00
17148;DHT22;8689;47.364;8.796;2023-08-24T12:53:06;36.20;48.00
17148;DHT22;8689;47.364;8.796;2023-08-24T12:55:34;36.40;47.80
17148;DHT22;8689;47.364;8.796;2023-08-24T12:58:03;36.50;47.30
17148;DHT22;8689;47.364;8.796;2023-08-24T13:00:31;36.70;47.00
17148;DHT22;8689;47.364;8.796;2023-08-24T13:02:58;36.90;46.30
17148;DHT22;8689;47.364;8.796;2023-08-24T13:05:25;37.10;45.90
17148;DHT22;8689;47.364;8.796;2023-08-24T13:07:52;37.20;46.60
17148;DHT22;8689;47.364;8.796;2023-08-24T13:10:19;37.50;45.80
17148;DHT22;8689;47.364;8.796;2023-08-24T13:12:46;37.80;45.30
17148;DHT22;8689;47.364;8.796;2023-08-24T13:15:15;38.10;43.80
17148;DHT22;8689;47.364;8.796;2023-08-24T13:17:42;38.20;43.70
17148;DHT22;8689;47.364;8.796;2023-08-24T13:20:10;38.30;44.60
17148;DHT22;8689;47.364;8.796;2023-08-24T13:22:37;38.50;43.90
17148;DHT22;8689;47.364;8.796;2023-08-24T13:25:06;39.00;42.50
17148;DHT22;8689;47.364;8.796;2023-08-24T13:27:33;39.20;40.60
17148;DHT22;8689;47.364;8.796;2023-08-24T13:30:01;39.40;40.70
17148;DHT22;8689;47.364;8.796;2023-08-24T13:32:29;39.80;40.10
17148;DHT22;8689;47.364;8.796;2023-08-24T13:34:57;40.00;38.90
17148;DHT22;8689;47.364;8.796;2023-08-24T13:37:24;40.10;39.50
17148;DHT22;8689;47.364;8.796;2023-08-24T13:39:52;40.40;39.30
17148;DHT22;8689;47.364;8.796;2023-08-24T13:42:19;40.60;36.50
17148;DHT22;8689;47.364;8.796;2023-08-24T13:44:48;40.50;36.40
17148;DHT22;8689;47.364;8.796;2023-08-24T13:47:15;40.60;37.20
17148;DHT22;8689;47.364;8.796;2023-08-24T13:49:45;40.70;35.40
17148;DHT22;8689;47.364;8.796;2023-08-24T13:52:23;40.70;36.60
17148;DHT22;8689;47.364;8.796;2023-08-24T13:54:56;41.00;36.60
17148;DHT22;8689;47.364;8.796;2023-08-24T13:58:06;41.00;37.10
17148;DHT22;8689;47.364;8.796;2023-08-24T14:01:00;41.20;37.40
17148;DHT22;8689;47.364;8.796;2023-08-24T14:03:57;41.60;35.70
17148;DHT22;8689;47.364;8.796;2023-08-24T14:06:30;42.20;35.30
17148;DHT22;8689;47.364;8.796;2023-08-24T14:08:57;42.20;34.70
17148;DHT22;8689;47.364;8.796;2023-08-24T14:11:25;42.30;34.30
17148;DHT22;8689;47.364;8.796;2023-08-24T14:13:52;42.10;36.20
17148;DHT22;8689;47.364;8.796;2023-08-24T14:16:19;42.20;35.00
17148;DHT22;8689;47.364;8.796;2023-08-24T14:18:57;42.30;35.60
17148;DHT22;8689;47.364;8.796;2023-08-24T14:21:35;42.60;34.50
17148;DHT22;8689;47.364;8.796;2023-08-24T14:24:03;42.50;34.20
17148;DHT22;8689;47.364;8.796;2023-08-24T14:26:30;42.20;35.30
17148;DHT22;8689;47.364;8.796;2023-08-24T14:28:57;42.00;35.80
17148;DHT22;8689;47.364;8.796;2023-08-24T14:31:34;41.90;35.20
17148;DHT22;8689;47.364;8.796;2023-08-24T14:34:04;41.70;35.60
17148;DHT22;8689;47.364;8.796;2023-08-24T14:36:49;41.50;36.40
17148;DHT22;8689;47.364;8.796;2023-08-24T14:39:23;41.50;36.80
17148;DHT22;8689;47.364;8.796;2023-08-24T14:41:50;41.50;36.70
17148;DHT22;8689;47.364;8.796;2023-08-24T14:44:23;41.70;35.30
17148;DHT22;8689;47.364;8.796;2023-08-24T14:46:51;41.70;35.30
17148;DHT22;8689;47.364;8.796;2023-08-24T14:52:29;41.60;35.50
17148;DHT22;8689;47.364;8.796;2023-08-24T14:57:50;41.50;36.40
17148;DHT22;8689;47.364;8.796;2023-08-24T14:58:59;41.30;36.30
17148;DHT22;8689;47.364;8.796;2023-08-24T15:01:53;41.00;35.90
17148;DHT22;8689;47.364;8.796;2023-08-24T15:04:28;40.60;37.50
17148;DHT22;8689;47.364;8.796;2023-08-24T15:07:00;40.20;37.70
17148;DHT22;8689;47.364;8.796;2023-08-24T15:09:30;40.20;37.20
17148;DHT22;8689;47.364;8.796;2023-08-24T15:11:58;40.20;37.70
17148;DHT22;8689;47.364;8.796;2023-08-24T15:14:30;40.10;37.80
17148;DHT22;8689;47.364;8.796;2023-08-24T15:16:57;39.50;38.80
17148;DHT22;8689;47.364;8.796;2023-08-24T15:19:25;39.10;39.20
17148;DHT22;8689;47.364;8.796;2023-08-24T15:21:53;38.70;40.50
17148;DHT22;8689;47.364;8.796;2023-08-24T15:24:20;38.20;40.70
17148;DHT22;8689;47.364;8.796;2023-08-24T15:26:57;37.80;40.50
17148;DHT22;8689;47.364;8.796;2023-08-24T15:29:24;37.20;41.30
17148;DHT22;8689;47.364;8.796;2023-08-24T15:31:51;36.70;42.70
17148;DHT22;8689;47.364;8.796;2023-08-24T15:34:18;36.30;43.90
17148;DHT22;8689;47.364;8.796;2023-08-24T15:36:45;35.90;44.80
17148;DHT22;8689;47.364;8.796;2023-08-24T15:39:13;35.70;44.30
17148;DHT22;8689;47.364;8.796;2023-08-24T15:41:40;35.50;44.80
17148;DHT22;8689;47.364;8.796;2023-08-24T15:44:09;35.30;46.10
17148;DHT22;8689;47.364;8.796;2023-08-24T15:46:37;35.10;45.70
17148;DHT22;8689;47.364;8.796;2023-08-24T15:49:04;34.90;46.30
17148;DHT22;8689;47.364;8.796;2023-08-24T15:51:32;34.80;46.90
17148;DHT22;8689;47.364;8.796;2023-08-24T15:53:59;34.60;47.40
17148;DHT22;8689;47.364;8.796;2023-08-24T15:56:27;34.40;47.80
17148;DHT22;8689;47.364;8.796;2023-08-24T15:58:54;34.30;48.20
17148;DHT22;8689;47.364;8.796;2023-08-24T16:01:23;34.30;47.80